Benoît Dumont

Olheiro - LOSC Lille
20 Fev 2028
Domingo
Processo

Personalidade

Adaptabilidade (15) Ambição (12) Controvérsia (14) Lealdade (20) Pressão (3) Profissionalismo (6) Espírito Esportivo (16) Temperamento (7)

Perfil

Estilo de Treinamento Democrático
Licença Nacional A
Determinação 7
Gestão de Pessoas 7
Motivação 12
Disciplina 9
Satisfação no Trabalho
100%
Fadiga
0%
Função Olheiro
Salário 52.4K p/s
Contrato 14.03.2029

Desempenho

Comportamento Bom
Eficácia do Treinamento
58%
Desenvolvimento do Jogador
55%
Prevenção de Lesões
70%
Implementação Tática
55%

Eventos Recentes

Participou de uma reunião de recrutamento 7d atrás
Observou uma partida 7d atrás
Participou de uma reunião de recrutamento 14d atrás
Participou de uma reunião de recrutamento 21d atrás
Participou de uma reunião de recrutamento 28d atrás
Participando de desenvolvimento profissional 28d atrás
Participando de desenvolvimento profissional 28d atrás
Participando de desenvolvimento profissional 28d atrás

Monitorando agora

68
Jogador Clube Status Habilidade Confiança Observado Última observação Último voto
Yassir Zabiri Stade Rennais Ativo 150 / 138 55% 1 01.01.2028 -
Leo Castledine Middlesbrough Ativo 138 / 139 40% 3 30.05.2027 -
Milan Roganović Racing Genk Ativo 106 / 115 40% 2 28.05.2027 -
Christ Inao Oulaï Fiorentina Ativo 124 / 144 40% 3 28.05.2027 -
Davide Bartesaghi AC Milan Ativo 141 / 132 40% 2 27.05.2027 -
Jesús Rodríguez Como Ativo 155 / 147 40% 2 27.05.2027 -
Louis Leroux FC Nantes Ativo 127 / 120 40% 1 27.05.2027 -
Khalis Merah Toulouse FC Ativo 123 / 115 40% 1 27.05.2027 -
Kenan Yıldız Juventus Ativo 160 / 156 40% 2 26.05.2027 -
Toni Tamarit Alverca Ativo 114 / 121 40% 2 24.05.2027 -
Jorrel Hato Chelsea Ativo 149 / 153 40% 6 23.05.2027 -
Luís Guilherme Sporting CP Ativo 122 / 138 40% 1 23.05.2027 -
Caleb Yirenkyi Coventry City Ativo 142 / 141 40% 4 21.05.2027 -
Richard Koné Queens Park Rangers Ativo 119 / 122 40% 2 21.05.2027 -
Joaquín Panichelli Le Havre AC Ativo 138 / 152 40% 1 21.05.2027 -
Gonçalo Oliveira Benfica Ativo 104 / 119 40% 1 21.05.2027 -
Karim Coulibaly RC Strasbourg Ativo 120 / 134 40% 1 20.05.2027 -
Cyriaque Irié VfL Wolfsburg Ativo 114 / 122 40% 1 20.05.2027 -
Myron van Brederode KV Mechelen Ativo 121 / 123 40% 2 17.05.2027 -
Jan Bürger Gillingham Ativo 119 / 117 40% 3 15.05.2027 -
Lander Astiazarán Real Sociedad Ativo 115 / 116 40% 1 15.05.2027 -
Lucas Høgsberg RC Strasbourg Ativo 144 / 141 40% 4 14.05.2027 -
Matheus Gonçalves Al-Ahli Ativo 132 / 137 40% 2 14.05.2027 -
Aral Şimşir Trabzonspor Ativo 146 / 146 40% 1 12.05.2027 -
Dom Ballard Leyton Orient Ativo 115 / 128 40% 1 12.05.2027 -
José Pachuca Puebla Ativo 100 / 126 40% 1 09.05.2027 -
Noah Nartey Olympique Lyonnais Ativo 130 / 148 40% 3 05.05.2027 -
Jofre Torrents Ajax Ativo 120 / 124 40% 1 05.05.2027 -
Yoan Bonny Inter Ativo 140 / 141 40% 1 05.05.2027 -
Shea Lacey Wolverhampton Perdido 120 / 120 40% 2 03.05.2027 -
Johan Manzambi Newcastle United Ativo 133 / 137 40% 1 03.05.2027 -
Cheveyo Tsawa Club Brugge Ativo 114 / 138 40% 5 29.04.2027 -
Jan Virgili Club Brugge Ativo 137 / 137 40% 4 29.04.2027 -
Tom Cannon Sheffield United Ativo 127 / 136 40% 2 29.04.2027 -
Assane Diao Lazio Ativo 146 / 140 40% 1 27.04.2027 -
Deivid Washington RC Strasbourg Ativo 119 / 130 40% 1 27.04.2027 -
Karim Karimi Siah Jamegan Ativo 131 / 121 40% 1 25.04.2027 -
Mees Rijks Bristol Rovers Ativo 101 / 101 40% 1 25.04.2027 -
Christos Mouzakitis Hull City Ativo 142 / 141 40% 2 22.04.2027 -
Samir El Mourabet RC Strasbourg Ativo 131 / 124 40% 1 22.04.2027 -
Ansu Fati Monaco Ativo 140 / 128 40% 1 20.04.2027 -
Pablo Felipe West Ham United Ativo 132 / 126 40% 1 17.04.2027 -
Efraín Álvarez Guadalajara Ativo 118 / 118 40% 1 17.04.2027 -
Reda Laalaoui Westerlo Ativo 101 / 123 40% 1 16.04.2027 -
Jonás Luna Santa Clara Ativo 127 / 133 40% 3 15.04.2027 -
Ernie Weaver AFC Wimbledon Ativo 113 / 126 40% 2 14.04.2027 -
Josh King Chelsea Ativo 141 / 139 40% 2 12.04.2027 -
Ethan Williams Peterborough United Ativo 116 / 128 40% 2 11.04.2027 -
Matías Gómez Granada Ativo 121 / 114 40% 1 08.04.2027 -
Riley Owen Trento Ativo 95 / 109 40% 1 08.04.2027 -
William Gomes Porto Ativo 135 / 148 40% 2 05.04.2027 -
James Dornelly Peterborough United Ativo 113 / 103 40% 1 01.04.2027 -
Émile Fontaine Chamois Niortais Ativo 103 / 111 40% 1 31.03.2027 -
Othmane Maamma Watford Ativo 127 / 121 40% 1 31.03.2027 -
Mfundo Vilakazi Kaizer Chiefs Ativo 115 / 107 40% 1 31.03.2027 -
Ibrahim Coulibaly Clermont Foot Ativo 118 / 124 40% 1 23.03.2027 -
Jack Hinshelwood Brighton Ativo 152 / 148 40% 1 21.03.2027 -
Pape Diong Westerlo Ativo 100 / 129 40% 1 17.03.2027 -
Joaquin Seys Club Brugge Ativo 134 / 124 40% 2 16.03.2027 -
Kutlwano Letlhaku Ajax Cape Town Ativo 96 / 130 40% 1 15.03.2027 -
Leandrinho Sharjah Ativo 127 / 128 40% 2 11.03.2027 -
Kevin Vazquez Cruz Azul Ativo 124 / 125 40% 2 10.03.2027 -
Matvey Kislyak CSKA Moscow Ativo 121 / 135 40% 1 10.03.2027 -
Antoni Milambo Brentford Ativo 136 / 146 40% 1 07.03.2027 -
Dylan Lawlor Cardiff City Ativo 110 / 117 40% 1 05.03.2027 -
Amadou Niang Al Ain Ativo 99 / 101 40% 1 02.03.2027 -
Arthur Avom Ebong FC Lorient Ativo 128 / 144 55% 1 10.08.2026 -
Ilyas Ansah Hull City Ativo 137 / 137 40% 1 02.08.2026 -